Time;durP1;ratioP1;P1;durP2;ratioP2;P2;SDS_P1;SDS_P2;PMS_P1;PMS_P2;Temp;Humidity;BMP_temperature;BMP_pressure;BME280_temperature;BME280_humidity;BME280_pressure;Samples;Min_cycle;Max_cycle;Signal;HPM_P1;HPM_P2
2023/11/07 06:17:31;;;;;;;4.05;2.67;;;;;;;6.95;72.78;96391.94;6269924;22;19910;-80
2023/11/07 06:20:08;;;;;;;4.72;3.13;;;;;;;6.92;72.90;96392.25;6305427;22;20067;-80
2023/11/07 06:22:41;;;;;;;5.18;3.92;;;;;;;6.88;73.03;96401.31;6305655;22;20007;-80
2023/11/07 06:25:15;;;;;;;4.18;3.08;;;;;;;6.83;73.01;96403.59;6305806;22;20026;-80
2023/11/07 06:27:50;;;;;;;4.30;3.13;;;;;;;6.79;75.05;96413.47;6305660;22;20191;-80
2023/11/07 06:30:22;;;;;;;5.55;3.78;;;;;;;6.83;75.85;96424.34;6305435;22;20269;-79
2023/11/07 06:32:58;;;;;;;3.75;2.58;;;;;;;6.85;76.08;96426.78;6305640;22;20055;-82
2023/11/07 06:35:29;;;;;;;5.82;3.13;;;;;;;6.84;74.76;96431.13;6305848;22;20019;-82
2023/11/07 06:37:59;;;;;;;5.10;3.42;;;;;;;6.83;74.44;96434.72;6305792;22;20007;-80
2023/11/07 06:40:28;;;;;;;3.67;2.78;;;;;;;6.89;74.70;96439.25;6305425;22;20007;-80
2023/11/07 06:43:00;;;;;;;2.63;2.30;;;;;;;6.94;74.27;96442.16;6305666;22;20004;-80
2023/11/07 06:45:30;;;;;;;3.08;2.25;;;;;;;6.92;73.71;96438.91;6305508;22;20225;-80
2023/11/07 06:48:13;;;;;;;5.82;2.85;;;;;;;6.91;73.41;96434.72;6305450;22;20038;-82
2023/11/07 06:50:42;;;;;;;3.17;2.60;;;;;;;6.89;73.63;96438.44;6305368;22;20008;-80
2023/11/07 06:53:12;;;;;;;3.10;2.50;;;;;;;6.90;75.09;96447.84;6305194;22;20007;-80
2023/11/07 06:55:40;;;;;;;3.80;2.60;;;;;;;6.89;74.41;96441.84;6305617;22;20028;-80
2023/11/07 06:58:09;;;;;;;4.65;2.97;;;;;;;6.85;74.07;96434.56;6305562;22;20003;-80
2023/11/07 07:00:38;;;;;;;5.18;3.42;;;;;;;6.83;73.82;96439.91;6305448;22;20008;-80
2023/11/07 07:03:10;;;;;;;6.00;4.20;;;;;;;6.85;73.90;96452.72;6305337;22;20004;-80
2023/11/07 07:05:44;;;;;;;5.25;4.40;;;;;;;6.86;74.23;96454.31;6305426;22;20004;-80
2023/11/07 07:08:14;;;;;;;6.85;4.95;;;;;;;6.87;74.02;96446.38;6305264;22;20014;-80
2023/11/07 07:10:45;;;;;;;5.32;4.47;;;;;;;6.89;74.09;96449.63;6304969;22;20008;-80
2023/11/07 07:13:20;;;;;;;7.25;4.60;;;;;;;6.93;73.96;96447.50;6305207;22;20006;-80
2023/11/07 07:15:50;;;;;;;5.30;4.45;;;;;;;6.97;74.32;96447.00;6305292;22;20027;-81
2023/11/07 07:18:30;;;;;;;6.88;4.18;;;;;;;6.98;74.56;96448.66;6305030;22;20003;-80
2023/11/07 07:21:01;;;;;;;6.07;4.03;;;;;;;7.03;74.28;96447.34;6305338;22;20004;-80
2023/11/07 07:23:36;;;;;;;4.50;3.22;;;;;;;7.09;74.19;96447.50;6305305;22;20008;-80
2023/11/07 07:26:09;;;;;;;;;;;;;;;7.18;74.38;96448.31;6305645;22;20003;-81
2023/11/07 07:28:43;;;;;;;;;;;;;;;7.24;74.48;96452.84;6304638;22;19903;-83
2023/11/07 07:31:16;;;;;;;2.35;1.90;;;;;;;7.28;73.90;96448.13;6305068;22;19899;-83
2023/11/07 07:33:47;;;;;;;3.97;2.78;;;;;;;7.32;73.76;96460.59;6305509;22;20012;-81
2023/11/07 07:36:18;;;;;;;2.47;2.13;;;;;;;7.38;73.73;96459.94;6305124;22;20063;-83
2023/11/07 07:38:52;;;;;;;2.40;2.20;;;;;;;7.45;74.28;96454.09;6305143;22;20023;-80
2023/11/07 07:41:27;;;;;;;2.20;1.95;;;;;;;7.51;74.06;96458.63;6304600;22;20019;-81
2023/11/07 07:44:03;;;;;;;2.00;1.80;;;;;;;7.58;74.20;96454.38;6305049;22;20008;-80
2023/11/07 07:46:35;;;;;;;1.80;1.40;;;;;;;7.65;73.18;96460.53;6304987;22;20016;-81
2023/11/07 07:49:10;;;;;;;5.55;1.95;;;;;;;7.68;73.03;96457.63;6304990;22;20006;-80
2023/11/07 07:51:45;;;;;;;3.70;1.67;;;;;;;7.74;73.58;96450.94;6304787;22;20035;-80
2023/11/07 07:54:14;;;;;;;2.92;1.55;;;;;;;7.78;72.81;96450.44;6304990;22;20011;-80
2023/11/07 07:57:05;;;;;;;2.15;1.13;;;;;;;7.81;72.20;96447.50;6305022;22;20007;-80
2023/11/07 07:59:40;;;;;;;2.97;1.30;;;;;;;7.85;72.22;96442.81;6305068;22;20004;-79
2023/11/07 08:02:10;;;;;;;3.33;1.20;;;;;;;7.92;72.20;96445.53;6304756;22;20004;-81
2023/11/07 08:04:40;;;;;;;1.20;0.98;;;;;;;8.01;71.92;96447.09;6304963;22;20060;-81
2023/11/07 08:07:09;;;;;;;1.73;1.40;;;;;;;8.11;73.15;96447.72;6305101;22;20063;-81
2023/11/07 08:09:40;;;;;;;1.33;0.90;;;;;;;8.20;72.86;96443.28;6304889;22;20015;-80
2023/11/07 08:12:10;;;;;;;2.00;0.88;;;;;;;8.32;72.39;96448.91;6304930;22;20019;-80
2023/11/07 08:14:40;;;;;;;1.20;1.10;;;;;;;8.39;71.53;96442.84;6305013;22;20034;-81
2023/11/07 08:17:09;;;;;;;5.90;1.50;;;;;;;8.47;71.54;96452.41;6304850;22;20015;-80
2023/11/07 08:19:38;;;;;;;1.30;1.20;;;;;;;8.53;71.21;96454.34;6304736;22;20019;-80
2023/11/07 08:22:08;;;;;;;3.85;1.30;;;;;;;8.63;74.16;96444.50;6304736;22;19999;-80
2023/11/07 08:24:36;;;;;;;2.40;1.35;;;;;;;8.74;71.14;96451.09;6304788;22;20004;-80
2023/11/07 08:27:05;;;;;;;2.78;1.33;;;;;;;8.83;71.60;96454.44;6304552;22;20015;-80
2023/11/07 08:29:33;;;;;;;3.83;1.48;;;;;;;8.98;72.45;96450.09;6304704;22;20004;-80
2023/11/07 08:32:04;;;;;;;2.42;1.30;;;;;;;9.13;70.69;96454.53;6304677;22;20035;-80
2023/11/07 08:34:33;;;;;;;1.00;0.98;;;;;;;9.30;70.22;96456.00;6304474;22;20003;-80
2023/11/07 08:37:04;;;;;;;1.05;1.05;;;;;;;9.51;69.74;96464.91;6304650;22;20063;-81
2023/11/07 08:39:40;;;;;;;2.45;1.20;;;;;;;9.78;68.44;96463.50;6304460;22;20027;-80
2023/11/07 08:42:10;;;;;;;1.13;0.90;;;;;;;10.05;68.04;96464.66;6304484;22;20012;-80
2023/11/07 08:44:39;;;;;;;1.65;1.20;;;;;;;10.38;66.88;96459.06;6304668;22;20046;-80
2023/11/07 09:08:48;;;;;;;2.53;1.08;;;;;;;13.80;56.70;96480.41;6337782;22;20011;-82
2023/11/07 09:11:26;;;;;;;1.05;0.60;;;;;;;14.07;53.83;96475.09;6318700;22;20003;-82
2023/11/07 10:01:04;;;;;;;0.98;0.43;;;;;;;13.25;54.99;96462.28;6303987;22;20006;-81
2023/11/07 10:03:39;;;;;;;1.02;0.43;;;;;;;13.34;57.91;96468.16;6306658;22;20012;-80
2023/11/07 10:54:38;;;;;;;2.63;0.43;;;;;;;17.80;47.83;96440.44;6276822;22;20011;-85
2023/11/07 10:57:10;;;;;;;1.25;0.20;;;;;;;17.85;45.63;96437.94;6300990;22;20023;-85
2023/11/07 10:59:41;;;;;;;0.95;0.32;;;;;;;17.95;46.16;96434.72;6297857;22;20020;-85
2023/11/07 11:02:09;;;;;;;1.38;0.40;;;;;;;18.04;42.94;96432.53;6287549;22;20043;-85
2023/11/07 11:04:39;;;;;;;0.95;0.57;;;;;;;18.02;47.17;96432.75;6286640;22;20020;-85
2023/11/07 11:07:09;;;;;;;1.08;0.30;;;;;;;18.07;46.80;96424.94;6279994;22;20011;-85
2023/11/07 11:09:41;;;;;;;0.60;0.17;;;;;;;18.04;44.51;96428.06;6278580;22;20303;-84
2023/11/07 11:12:12;;;;;;;1.55;0.38;;;;;;;17.93;45.91;96420.97;6290474;22;20038;-84
2023/11/07 11:14:39;;;;;;;0.82;0.50;;;;;;;17.79;43.40;96414.28;6302724;22;20004;-83
2023/11/07 11:17:17;;;;;;;0.85;0.45;;;;;;;17.53;42.81;96411.09;6304421;22;20007;-84
2023/11/07 11:19:56;;;;;;;3.03;0.50;;;;;;;17.70;47.54;96419.13;6293595;22;20037;-83
2023/11/07 11:22:30;;;;;;;0.88;0.40;;;;;;;18.01;47.48;96420.59;6280425;22;20026;-83
2023/11/07 11:25:13;;;;;;;0.52;0.32;;;;;;;18.15;43.42;96422.94;6281436;22;20019;-84
2023/11/07 11:27:47;;;;;;;2.25;0.30;;;;;;;18.05;45.34;96421.72;6277474;22;20034;-83
2023/11/07 11:30:16;;;;;;;0.38;0.25;;;;;;;17.87;45.35;96421.88;6277536;22;20020;-84
2023/11/07 11:32:44;;;;;;;0.75;0.20;;;;;;;17.58;42.96;96416.50;6282559;22;20012;-84
2023/11/07 11:35:33;;;;;;;0.95;0.40;;;;;;;17.30;44.46;96404.81;6303715;22;20063;-82
2023/11/07 11:38:09;;;;;;;1.25;0.45;;;;;;;17.07;44.75;96416.13;6304767;22;20008;-81
2023/11/07 11:40:59;;;;;;;0.35;0.20;;;;;;;16.80;47.69;96421.00;6305502;22;20011;-81
2023/11/07 11:43:31;;;;;;;0.57;0.20;;;;;;;16.53;45.42;96415.28;6306119;22;20031;-80
2023/11/07 11:46:42;;;;;;;0.17;0.10;;;;;;;16.28;46.11;96407.50;6306110;22;20024;-81
2023/11/07 11:49:18;;;;;;;0.30;0.30;;;;;;;16.04;46.23;96401.34;6306346;22;20015;-83
2023/11/07 11:51:51;;;;;;;0.38;0.13;;;;;;;15.90;48.80;96405.97;6280197;22;20009;-81
2023/11/07 11:55:07;;;;;;;0.47;0.20;;;;;;;15.73;50.87;96407.56;6304608;22;20015;-82
2023/11/07 11:58:20;;;;;;;0.73;0.20;;;;;;;15.53;50.03;96408.53;6280519;22;20011;-83
2023/11/07 12:09:52;;;;;;;0.63;0.25;;;;;;;14.77;51.98;96413.00;6245387;22;20193;-80
2023/11/07 12:12:21;;;;;;;3.83;0.17;;;;;;;14.65;50.27;96414.72;6274337;22;20015;-80
2023/11/07 12:14:59;;;;;;;0.43;0.32;;;;;;;14.49;50.07;96421.22;6273931;22;20020;-82
2023/11/07 12:20:50;;;;;;;0.13;0.10;;;;;;;14.39;53.80;96418.25;6257797;22;20010;-81
2023/11/07 12:26:43;;;;;;;1.73;0.40;;;;;;;14.18;51.09;96406.25;6292569;22;20002;-82
2023/11/07 13:55:37;;;;;;;1.77;0.65;;;;;;;12.88;62.89;96413.91;6253673;22;20003;-80
2023/11/07 13:58:14;;;;;;;0.43;0.20;;;;;;;12.80;61.01;96406.28;6307959;22;20003;-80
2023/11/07 14:03:32;;;;;;;1.95;0.90;;;;;;;12.75;61.16;96415.53;6286558;22;20018;-80
2023/11/07 14:16:46;;;;;;;1.67;0.77;;;;;;;12.54;64.23;96423.53;6343833;22;20095;-81
2023/11/07 14:19:19;;;;;;;0.52;0.40;;;;;;;12.49;63.62;96429.38;6080370;22;4522762;-81
2023/11/07 14:21:51;;;;;;;0.70;0.20;;;;;;;12.42;62.86;96431.19;6229332;23;20016;-81
2023/11/07 14:24:25;;;;;;;0.60;0.40;;;;;;;12.39;63.59;96428.13;6223458;23;20011;-81
2023/11/07 14:26:59;;;;;;;0.45;0.30;;;;;;;12.41;66.13;96423.53;6223574;23;20009;-81
2023/11/07 15:11:03;;;;;;;1.55;0.80;;;;;;;11.70;65.25;96435.06;6193267;23;20271;-80
2023/11/07 15:13:35;;;;;;;0.77;0.60;;;;;;;11.71;67.48;96440.09;6221203;23;20004;-82
2023/11/07 15:16:10;;;;;;;1.10;0.65;;;;;;;11.71;65.87;96447.13;6188688;23;20012;-81
2023/11/07 15:18:42;;;;;;;1.75;0.70;;;;;;;11.66;64.67;96437.25;6184598;23;20006;-80
2023/11/07 15:21:17;;;;;;;1.38;0.70;;;;;;;11.63;64.82;96452.50;6184825;23;20013;-79
2023/11/07 15:37:19;;;;;;;1.10;0.60;;;;;;;11.29;64.36;96448.88;6172802;23;20028;-81
2023/11/07 15:39:49;;;;;;;0.40;0.40;;;;;;;11.26;66.57;96455.28;6185236;23;20088;-81
2023/11/07 19:04:18;;;;;;;1.05;1.00;;;;;;;9.31;68.99;96616.41;6151051;23;20016;-82
2023/11/07 19:06:59;;;;;;;1.05;0.95;;;;;;;9.32;71.86;96620.63;6157468;23;20010;-83
2023/11/07 19:10:55;;;;;;;0.98;0.80;;;;;;;9.36;75.02;96623.69;6069533;23;20027;-82
2023/11/07 19:16:20;;;;;;;0.82;0.50;;;;;;;9.36;71.73;96634.09;6138594;23;20012;-79
2023/11/07 19:18:51;;;;;;;2.83;2.13;;;;;;;9.34;70.68;96639.50;6184910;23;20043;-80
2023/11/07 20:49:43;;;;;;;3.10;1.42;;;;;;;9.21;71.23;96712.13;6165025;23;20073;-81
